Time;durP1;ratioP1;P1;durP2;ratioP2;P2;SDS_P1;SDS_P2;PMS_P1;PMS_P2;Temp;Humidity;BMP_temperature;BMP_pressure;BME280_temperature;BME280_humidity;BME280_pressure;Samples;Min_cycle;Max_cycle;Signal;HPM_P1;HPM_P2
2022/06/22 00:01:04;;;;;;;3.03;2.73;;;19.90;99.90;;;;;;5044827;28;20398;-85
2022/06/22 00:03:52;;;;;;;3.50;2.00;;;19.90;99.90;;;;;;5060221;28;20394;-85
2022/06/22 00:06:42;;;;;;;4.07;3.30;;;19.90;99.90;;;;;;5061078;28;20474;-85
2022/06/22 00:09:36;;;;;;;3.50;2.30;;;19.80;99.90;;;;;;5060355;28;20451;-85
2022/06/22 00:12:26;;;;;;;2.13;2.03;;;19.80;99.90;;;;;;5060575;28;20389;-85
2022/06/22 00:15:37;;;;;;;2.70;2.50;;;19.80;99.90;;;;;;5060900;28;20466;-85
2022/06/22 00:18:29;;;;;;;4.97;2.57;;;19.80;99.90;;;;;;5059879;28;20394;-85
2022/06/22 00:21:31;;;;;;;4.90;2.70;;;19.70;99.90;;;;;;5046676;28;20517;-85
2022/06/22 00:24:35;;;;;;;2.07;1.90;;;19.70;99.90;;;;;;5047061;28;20397;-85
2022/06/22 00:27:30;;;;;;;3.63;2.73;;;19.70;99.90;;;;;;5048133;28;20382;-84
2022/06/22 00:30:23;;;;;;;2.23;2.13;;;19.60;99.90;;;;;;5061503;28;20446;-85
2022/06/22 00:33:19;;;;;;;2.20;2.00;;;19.60;99.90;;;;;;5030534;28;20401;-85
2022/06/22 00:36:14;;;;;;;2.20;2.10;;;19.40;99.90;;;;;;5044745;28;20414;-85
2022/06/22 00:39:15;;;;;;;3.13;2.93;;;19.50;99.90;;;;;;5059441;28;20478;-85
2022/06/22 00:42:21;;;;;;;2.27;2.17;;;19.50;99.90;;;;;;5059882;28;20470;-85
2022/06/22 00:45:13;;;;;;;2.57;2.20;;;19.50;99.90;;;;;;5059238;28;20429;-85
2022/06/22 00:48:02;;;;;;;2.37;2.10;;;19.30;99.90;;;;;;5059397;28;20405;-85
2022/06/22 00:50:54;;;;;;;2.37;2.10;;;19.50;99.90;;;;;;5045096;28;20383;-85
2022/06/22 00:53:45;;;;;;;3.30;2.60;;;19.50;99.90;;;;;;5059637;28;20377;-85
2022/06/22 00:56:51;;;;;;;2.73;2.20;;;19.50;99.90;;;;;;5059065;28;20433;-85
2022/06/22 00:59:51;;;;;;;2.33;2.13;;;19.50;99.90;;;;;;5059145;28;20404;-85
2022/06/22 01:02:43;;;;;;;2.93;2.00;;;19.50;99.90;;;;;;5059173;28;20870;-85
2022/06/22 01:05:34;;;;;;;2.77;2.57;;;19.40;99.90;;;;;;5044431;28;20424;-85
2022/06/22 01:08:31;;;;;;;2.80;2.60;;;19.30;99.90;;;;;;5059327;28;20382;-85
2022/06/22 01:14:41;;;;;;;5.23;3.00;;;19.20;99.90;;;;;;5058729;28;20745;-85
2022/06/22 01:17:32;;;;;;;2.90;2.60;;;19.10;99.90;;;;;;5043899;28;20430;-85
2022/06/22 01:20:51;;;;;;;2.90;2.10;;;19.20;99.90;;;;;;5044339;28;20385;-85
2022/06/22 01:23:59;;;;;;;2.30;2.17;;;19.20;99.90;;;;;;5044580;28;20390;-84
2022/06/22 01:27:22;;;;;;;2.70;2.43;;;19.10;99.90;;;;;;5059539;28;20390;-85
2022/06/22 01:30:33;;;;;;;2.53;2.33;;;19.10;99.90;;;;;;5058773;28;20441;-85
2022/06/22 01:33:25;;;;;;;3.00;2.80;;;19.00;99.90;;;;;;5059225;28;20386;-85
2022/06/22 01:36:22;;;;;;;3.00;2.70;;;19.10;99.90;;;;;;5059513;28;20409;-85
2022/06/22 01:39:09;;;;;;;3.40;2.33;;;19.00;99.90;;;;;;5045264;28;20417;-85
2022/06/22 01:42:00;;;;;;;3.20;2.57;;;19.00;99.90;;;;;;5059207;28;20397;-85
2022/06/22 01:44:56;;;;;;;2.60;2.40;;;19.00;99.90;;;;;;5058395;28;20393;-85
2022/06/22 01:47:50;;;;;;;2.50;2.30;;;19.00;99.90;;;;;;5059325;28;20409;-84
2022/06/22 01:50:46;;;;;;;4.50;2.90;;;19.00;99.90;;;;;;5062122;28;20397;-84
2022/06/22 01:53:40;;;;;;;2.17;1.97;;;19.00;99.90;;;;;;5047803;28;20893;-84
2022/06/22 01:56:39;;;;;;;2.93;2.73;;;19.10;99.90;;;;;;5062368;28;20480;-84
2022/06/22 01:59:34;;;;;;;3.30;2.37;;;19.00;99.90;;;;;;5062471;28;20414;-83
2022/06/22 02:02:31;;;;;;;2.60;2.30;;;19.00;99.90;;;;;;5062688;28;20394;-85
2022/06/22 02:05:33;;;;;;;2.23;2.13;;;18.90;99.90;;;;;;5070124;28;20796;-85
2022/06/22 02:08:26;;;;;;;9.23;2.90;;;18.90;99.90;;;;;;5062295;28;20476;-85
2022/06/22 02:11:16;;;;;;;3.60;2.70;;;18.70;99.90;;;;;;5062186;28;20390;-85
2022/06/22 02:14:12;;;;;;;2.50;2.27;;;18.40;99.90;;;;;;5062131;28;20378;-84
2022/06/22 02:17:02;;;;;;;2.60;2.07;;;18.50;99.90;;;;;;5062421;28;20745;-85
2022/06/22 02:20:20;;;;;;;2.40;2.10;;;18.70;99.90;;;;;;5061790;28;20391;-85
2022/06/22 02:23:12;;;;;;;2.53;2.33;;;18.50;99.90;;;;;;5062511;28;20437;-85
2022/06/22 02:26:21;;;;;;;9.13;2.77;;;17.80;99.90;;;;;;5061576;28;20394;-85
2022/06/22 02:29:06;;;;;;;3.07;2.87;;;17.60;99.90;;;;;;5061931;28;20462;-85
2022/06/22 02:31:53;;;;;;;3.30;2.73;;;17.30;99.90;;;;;;5063664;28;20424;-85
2022/06/22 02:34:42;;;;;;;7.70;3.20;;;17.20;99.90;;;;;;5065312;28;20386;-85
2022/06/22 02:37:31;;;;;;;3.77;2.70;;;17.10;99.90;;;;;;5063517;28;20779;-85
2022/06/22 02:40:21;;;;;;;3.80;3.17;;;17.10;99.90;;;;;;5047236;28;20917;-85
2022/06/22 02:46:12;;;;;;;6.93;2.57;;;17.00;99.90;;;;;;5061573;28;20385;-85
2022/06/22 02:49:05;;;;;;;6.03;3.23;;;16.80;99.90;;;;;;5061386;28;20521;-85
2022/06/22 02:51:52;;;;;;;5.00;3.00;;;16.60;99.90;;;;;;5061707;28;20387;-85
2022/06/22 02:54:47;;;;;;;2.97;2.77;;;16.70;99.90;;;;;;5046446;28;20381;-85
2022/06/22 02:57:46;;;;;;;3.83;2.87;;;16.70;99.90;;;;;;5061035;28;20464;-83
2022/06/22 03:00:39;;;;;;;2.53;2.33;;;16.90;99.90;;;;;;5060724;28;20382;-85
2022/06/22 03:03:24;;;;;;;3.00;2.70;;;17.20;99.90;;;;;;5060944;28;20413;-85
2022/06/22 03:06:13;;;;;;;3.23;2.60;;;17.50;99.90;;;;;;5061834;28;20406;-85
2022/06/22 03:09:02;;;;;;;2.33;2.23;;;17.70;99.90;;;;;;5075149;28;20484;-83
2022/06/22 03:11:51;;;;;;;7.27;4.03;;;17.80;99.90;;;;;;5072486;28;20382;-85
2022/06/22 03:14:48;;;;;;;2.53;2.37;;;17.90;99.90;;;;;;5062417;28;20397;-85
2022/06/22 03:17:38;;;;;;;2.97;2.70;;;17.90;99.90;;;;;;5061477;28;20401;-84
2022/06/22 03:20:26;;;;;;;5.83;3.07;;;18.10;99.90;;;;;;5061553;28;20777;-85
2022/06/22 03:23:41;;;;;;;4.70;2.83;;;18.10;99.90;;;;;;5060905;28;20429;-84
2022/06/22 03:26:35;;;;;;;4.00;2.70;;;18.10;99.90;;;;;;5061345;28;20736;-84
2022/06/22 03:29:27;;;;;;;4.40;2.90;;;18.20;99.90;;;;;;5032972;28;20789;-84
2022/06/22 03:32:22;;;;;;;3.50;2.80;;;18.20;99.90;;;;;;5046796;28;20390;-84
2022/06/22 03:35:28;;;;;;;3.83;2.83;;;18.10;99.90;;;;;;5061276;28;20933;-85
2022/06/22 03:38:34;;;;;;;4.80;2.60;;;18.00;99.90;;;;;;5061869;28;20382;-85
2022/06/22 03:41:27;;;;;;;6.33;3.37;;;17.90;99.90;;;;;;5061630;28;20471;-85
2022/06/22 03:44:19;;;;;;;2.77;2.57;;;17.90;99.90;;;;;;5060896;28;20406;-85
2022/06/22 03:47:11;;;;;;;4.37;3.43;;;18.00;99.90;;;;;;5036102;28;20455;-85
2022/06/22 03:50:06;;;;;;;2.97;2.77;;;18.00;99.90;;;;;;5038863;28;20532;-85
2022/06/22 03:53:08;;;;;;;6.13;3.10;;;18.00;99.90;;;;;;5049169;28;20455;-84
2022/06/22 03:56:17;;;;;;;2.77;2.57;;;18.00;99.90;;;;;;5016723;28;20404;-85
2022/06/22 03:59:05;;;;;;;4.63;2.30;;;18.10;99.90;;;;;;5036617;28;20485;-85
2022/06/22 04:01:52;;;;;;;3.33;2.77;;;18.20;99.90;;;;;;5038006;28;20408;-85
2022/06/22 04:04:38;;;;;;;3.47;2.73;;;18.10;99.90;;;;;;5037876;28;20460;-85
2022/06/22 04:07:25;;;;;;;3.13;2.93;;;18.20;99.90;;;;;;5031816;28;20404;-85
2022/06/22 04:10:27;;;;;;;3.17;2.90;;;18.20;99.90;;;;;;5020350;28;20471;-85
2022/06/22 04:13:21;;;;;;;4.10;2.83;;;18.20;99.90;;;;;;5020925;28;20396;-85
2022/06/22 04:16:15;;;;;;;3.50;2.80;;;18.30;99.90;;;;;;5011420;28;20471;-85
2022/06/22 04:19:05;;;;;;;2.40;2.27;;;18.30;99.90;;;;;;5015929;28;20437;-85
2022/06/22 04:21:54;;;;;;;2.93;2.60;;;18.30;99.90;;;;;;5001345;28;20925;-85
2022/06/22 04:24:49;;;;;;;3.00;2.80;;;18.30;99.90;;;;;;5000554;28;20385;-85
2022/06/22 04:27:39;;;;;;;2.67;2.47;;;18.30;99.90;;;;;;4998292;28;20396;-85
2022/06/22 04:30:29;;;;;;;3.63;2.80;;;18.40;99.90;;;;;;4998679;28;20463;-85
2022/06/22 04:33:29;;;;;;;3.93;2.83;;;18.50;99.90;;;;;;4998603;28;20401;-85
2022/06/22 04:36:23;;;;;;;3.00;2.70;;;18.50;99.90;;;;;;4999202;28;20463;-85
2022/06/22 04:39:18;;;;;;;2.90;2.70;;;18.60;99.90;;;;;;4999277;28;20440;-85
2022/06/22 04:42:04;;;;;;;3.87;3.03;;;18.60;99.90;;;;;;5006103;28;20469;-84
2022/06/22 04:44:51;;;;;;;2.80;2.60;;;18.60;99.90;;;;;;5003975;28;20411;-84
2022/06/22 04:47:36;;;;;;;4.87;2.70;;;18.50;99.90;;;;;;5015607;28;20411;-84
2022/06/22 04:50:21;;;;;;;3.47;2.30;;;18.50;99.90;;;;;;5020025;28;20450;-84
2022/06/22 04:53:13;;;;;;;3.43;2.50;;;18.60;99.90;;;;;;5019851;28;20412;-84
2022/06/22 04:56:01;;;;;;;6.17;2.83;;;18.70;99.90;;;;;;5023824;28;20423;-83
2022/06/22 04:58:51;;;;;;;3.37;2.73;;;18.80;99.90;;;;;;5025499;28;20417;-84
2022/06/22 05:01:43;;;;;;;4.33;2.53;;;18.80;99.90;;;;;;5025310;28;20414;-85
2022/06/22 05:04:32;;;;;;;2.67;2.47;;;18.90;99.90;;;;;;5044510;28;20410;-84
2022/06/22 05:07:41;;;;;;;2.50;2.30;;;18.90;99.90;;;;;;5043810;28;20464;-82
2022/06/22 05:10:49;;;;;;;8.03;2.60;;;19.00;99.90;;;;;;5024382;28;21069;-83
2022/06/22 05:13:38;;;;;;;3.07;2.87;;;19.00;99.90;;;;;;5037588;28;20488;-83
2022/06/22 05:16:27;;;;;;;4.10;2.80;;;19.10;99.90;;;;;;5025544;28;20379;-83
2022/06/22 05:19:13;;;;;;;3.17;2.97;;;19.20;99.90;;;;;;5039833;28;20475;-84
2022/06/22 05:21:58;;;;;;;2.70;2.37;;;19.30;99.90;;;;;;5033909;28;20459;-83
2022/06/22 05:24:49;;;;;;;5.27;3.40;;;19.40;99.90;;;;;;5054396;28;20453;-84
2022/06/22 05:27:50;;;;;;;4.03;2.83;;;19.50;99.90;;;;;;5063399;28;20390;-84
2022/06/22 05:30:48;;;;;;;3.93;2.67;;;19.60;99.90;;;;;;5056494;28;20470;-85
2022/06/22 05:33:35;;;;;;;5.10;3.70;;;19.80;99.90;;;;;;5024684;28;20464;-84
2022/06/22 05:36:24;;;;;;;3.70;3.40;;;19.80;99.90;;;;;;5021007;28;20719;-84
2022/06/22 05:39:09;;;;;;;4.60;3.30;;;19.80;99.90;;;;;;5040536;28;20430;-84
2022/06/22 05:41:54;;;;;;;3.40;3.10;;;19.70;99.90;;;;;;5038717;28;20426;-84
2022/06/22 05:44:39;;;;;;;3.10;2.90;;;19.90;99.90;;;;;;5058542;28;20893;-84
2022/06/22 05:47:28;;;;;;;3.23;2.70;;;20.00;99.90;;;;;;5038102;28;20432;-85
2022/06/22 05:50:31;;;;;;;3.93;2.80;;;20.00;99.90;;;;;;5033655;28;20465;-85
2022/06/22 05:53:22;;;;;;;4.23;3.33;;;20.10;99.90;;;;;;5032125;28;20494;-83
2022/06/22 05:56:18;;;;;;;4.63;2.90;;;20.10;99.90;;;;;;5003241;28;20458;-84
2022/06/22 05:59:24;;;;;;;3.00;2.70;;;20.30;99.90;;;;;;5025083;28;20571;-84
2022/06/22 06:02:31;;;;;;;3.03;2.73;;;20.30;99.90;;;;;;5036624;28;20964;-84
2022/06/22 06:05:34;;;;;;;3.43;2.67;;;20.30;99.90;;;;;;5030895;28;20454;-84
2022/06/22 06:08:43;;;;;;;4.77;2.87;;;20.00;99.90;;;;;;5034765;28;20477;-84
2022/06/22 06:11:42;;;;;;;3.93;2.50;;;20.20;99.90;;;;;;5028976;28;20764;-84
2022/06/22 06:14:32;;;;;;;3.20;2.80;;;20.50;99.90;;;;;;5019397;28;20490;-86
2022/06/22 06:17:35;;;;;;;5.93;3.77;;;20.60;99.90;;;;;;5037385;28;20553;-83
2022/06/22 06:20:28;;;;;;;3.40;2.60;;;20.50;99.90;;;;;;5036222;28;20472;-85
2022/06/22 06:23:34;;;;;;;12.43;3.30;;;20.50;99.90;;;;;;5037831;28;20599;-84
2022/06/22 06:30:18;;;;;;;3.07;2.77;;;20.50;99.90;;;;;;5032757;28;20487;-83
2022/06/22 06:33:16;;;;;;;3.07;2.87;;;20.00;99.90;;;;;;5029571;28;20510;-85
2022/06/22 06:36:24;;;;;;;7.63;2.53;;;20.50;99.90;;;;;;5024240;28;20426;-84
2022/06/22 06:39:16;;;;;;;6.53;3.60;;;20.50;99.90;;;;;;5034145;28;20438;-83
2022/06/22 06:42:12;;;;;;;2.67;2.47;;;20.60;99.90;;;;;;5034752;28;20430;-82
2022/06/22 06:45:00;;;;;;;3.80;3.20;;;20.60;99.90;;;;;;5024460;28;21032;-83
2022/06/22 06:47:49;;;;;;;7.93;2.77;;;20.70;99.90;;;;;;5023446;28;20439;-83
2022/06/22 06:50:39;;;;;;;3.50;3.20;;;20.80;99.90;;;;;;5019690;28;20463;-82
2022/06/22 06:53:31;;;;;;;2.90;2.70;;;20.90;99.90;;;;;;5022774;28;20505;-83
2022/06/22 06:56:31;;;;;;;3.07;2.77;;;20.90;99.90;;;;;;5022540;28;20498;-83
2022/06/22 06:59:24;;;;;;;13.83;2.90;;;21.10;99.90;;;;;;5027555;28;20794;-83
2022/06/22 07:02:28;;;;;;;7.43;3.90;;;21.10;99.90;;;;;;4995361;28;20540;-80
2022/06/22 07:05:18;;;;;;;7.83;3.80;;;21.30;99.90;;;;;;4998908;28;20524;-82
2022/06/22 07:08:12;;;;;;;3.20;2.90;;;21.30;99.90;;;;;;4977524;28;20849;-83
2022/06/22 07:11:05;;;;;;;6.23;3.17;;;21.30;99.90;;;;;;4979925;28;20512;-83
2022/06/22 07:13:57;;;;;;;8.40;3.20;;;21.00;99.90;;;;;;4973587;28;20436;-83
2022/06/22 07:16:42;;;;;;;6.83;2.73;;;21.20;99.90;;;;;;4981013;28;20456;-83
2022/06/22 07:19:47;;;;;;;3.87;3.40;;;21.40;99.90;;;;;;4990557;28;20523;-82
2022/06/22 07:22:38;;;;;;;5.90;3.43;;;21.60;99.90;;;;;;4988251;28;20629;-82
2022/06/22 07:25:34;;;;;;;4.33;3.10;;;21.70;99.90;;;;;;4999597;28;20431;-82
2022/06/22 07:28:32;;;;;;;6.10;2.60;;;21.70;99.90;;;;;;4994127;28;20443;-82
2022/06/22 07:31:24;;;;;;;2.50;2.30;;;21.50;99.90;;;;;;4987297;28;20456;-82
2022/06/22 07:34:17;;;;;;;3.30;2.93;;;21.50;99.90;;;;;;5033463;28;20434;-83
2022/06/22 07:37:18;;;;;;;2.97;2.67;;;21.50;99.90;;;;;;5030367;28;20427;-83
2022/06/22 07:40:18;;;;;;;3.57;3.23;;;21.70;99.90;;;;;;5031292;28;20444;-82
2022/06/22 07:43:03;;;;;;;8.47;3.60;;;21.90;99.90;;;;;;5028288;28;20983;-81
2022/06/22 07:45:48;;;;;;;2.80;2.60;;;22.20;99.90;;;;;;5032497;28;20503;-83
2022/06/22 07:48:39;;;;;;;3.40;3.10;;;22.30;99.90;;;;;;5010789;28;22202;-83
2022/06/22 07:51:29;;;;;;;3.43;2.20;;;22.50;99.90;;;;;;5028185;28;20968;-83
2022/06/22 07:54:33;;;;;;;3.20;2.90;;;22.20;99.90;;;;;;5025872;28;20596;-82
2022/06/22 07:57:34;;;;;;;3.17;2.70;;;22.30;99.90;;;;;;5000830;28;20629;-83
2022/06/22 08:00:22;;;;;;;3.40;3.10;;;22.60;99.90;;;;;;5034926;28;20444;-81
2022/06/22 08:03:31;;;;;;;3.07;2.77;;;22.80;99.90;;;;;;5033856;28;20865;-82
2022/06/22 08:06:27;;;;;;;3.53;2.53;;;22.80;99.90;;;;;;5032260;28;20455;-80
2022/06/22 08:09:20;;;;;;;5.27;2.43;;;23.00;99.90;;;;;;5046135;28;20461;-82
2022/06/22 08:12:15;;;;;;;3.73;2.87;;;23.00;99.90;;;;;;5040877;28;20422;-80
2022/06/22 08:15:07;;;;;;;2.73;2.53;;;23.10;99.90;;;;;;5037100;28;20844;-81
2022/06/22 08:17:55;;;;;;;8.33;2.43;;;22.80;99.90;;;;;;5025989;28;21157;-79
2022/06/22 08:20:44;;;;;;;3.60;3.30;;;22.80;99.90;;;;;;5040115;28;20884;-80
2022/06/22 08:23:34;;;;;;;2.83;2.63;;;23.20;99.90;;;;;;5049484;28;20417;-81
2022/06/22 08:26:24;;;;;;;3.50;3.20;;;23.40;99.90;;;;;;5044066;28;20519;-79
2022/06/22 08:29:10;;;;;;;3.43;3.13;;;23.50;99.90;;;;;;5037792;28;20465;-80
2022/06/22 08:32:02;;;;;;;4.30;2.53;;;23.60;99.90;;;;;;5038086;28;20478;-81
2022/06/22 08:34:54;;;;;;;5.20;2.90;;;23.40;99.90;;;;;;5042607;28;22231;-80
2022/06/22 08:37:45;;;;;;;4.10;3.33;;;23.50;99.90;;;;;;5042896;28;20443;-81
2022/06/22 08:40:53;;;;;;;3.03;2.77;;;23.40;99.90;;;;;;5048726;28;20444;-79
2022/06/22 08:44:11;;;;;;;3.07;2.77;;;23.80;99.90;;;;;;5034886;28;20477;-80
2022/06/22 08:47:21;;;;;;;3.80;2.77;;;23.90;99.90;;;;;;5045773;28;20905;-79
2022/06/22 08:50:30;;;;;;;2.47;2.33;;;24.00;99.60;;;;;;5036146;28;20517;-79
2022/06/22 08:53:35;;;;;;;4.13;2.60;;;24.10;99.70;;;;;;5044025;28;20469;-80
2022/06/22 08:56:34;;;;;;;8.60;3.23;;;24.30;99.90;;;;;;5052817;28;20652;-80
2022/06/22 08:59:51;;;;;;;3.20;2.87;;;24.40;99.20;;;;;;5043476;28;20948;-79
2022/06/22 09:02:51;;;;;;;2.63;2.43;;;24.50;97.40;;;;;;5047968;28;21071;-80
2022/06/22 09:06:05;;;;;;;5.80;3.20;;;24.60;97.80;;;;;;5040830;28;20454;-79
2022/06/22 09:09:27;;;;;;;2.13;2.03;;;24.50;98.90;;;;;;4980329;28;20518;-80
2022/06/22 09:12:46;;;;;;;4.93;3.20;;;24.70;97.20;;;;;;4980589;28;20452;-79
2022/06/22 09:15:48;;;;;;;5.93;3.00;;;24.70;96.60;;;;;;4980361;28;20428;-81
2022/06/22 09:19:00;;;;;;;4.30;2.97;;;24.90;97.10;;;;;;4976168;28;20495;-80
2022/06/22 09:22:16;;;;;;;4.00;3.63;;;25.10;96.10;;;;;;4978526;28;20496;-80
2022/06/22 09:25:13;;;;;;;2.80;2.60;;;25.20;97.10;;;;;;4986970;28;20449;-80
2022/06/22 09:28:03;;;;;;;6.10;3.00;;;25.20;97.10;;;;;;4986243;28;21045;-82
2022/06/22 09:31:07;;;;;;;7.73;3.27;;;25.30;94.40;;;;;;4977579;28;20511;-78
2022/06/22 09:34:13;;;;;;;3.93;3.20;;;25.40;93.00;;;;;;4992450;28;20463;-81
2022/06/22 09:37:27;;;;;;;3.10;2.73;;;25.60;95.50;;;;;;4987060;28;20696;-79
2022/06/22 09:40:33;;;;;;;3.60;3.30;;;25.80;94.50;;;;;;5040169;28;20445;-81
2022/06/22 09:43:42;;;;;;;2.77;2.57;;;26.00;92.70;;;;;;5032223;28;20453;-80
2022/06/22 09:47:06;;;;;;;3.87;3.33;;;26.10;94.20;;;;;;5036186;28;20863;-81
2022/06/22 09:50:23;;;;;;;3.67;2.70;;;26.30;91.60;;;;;;5035707;28;20568;-83
2022/06/22 09:53:29;;;;;;;3.47;2.80;;;26.30;91.00;;;;;;5047182;28;20436;-81
2022/06/22 09:56:48;;;;;;;3.90;3.60;;;26.60;91.40;;;;;;5032602;28;20527;-80
2022/06/22 09:59:50;;;;;;;7.33;3.03;;;26.80;90.60;;;;;;5020759;28;20522;-80
2022/06/22 10:03:03;;;;;;;4.63;2.80;;;26.70;82.80;;;;;;5013219;28;20493;-81
2022/06/22 10:06:27;;;;;;;2.60;2.40;;;26.50;81.40;;;;;;5053849;28;20442;-81
2022/06/22 10:09:47;;;;;;;6.97;3.50;;;26.50;82.00;;;;;;5028299;28;20448;-81
2022/06/22 10:13:07;;;;;;;3.23;2.60;;;26.60;82.30;;;;;;5020744;28;20460;-82
2022/06/22 10:16:12;;;;;;;3.03;2.83;;;26.50;81.80;;;;;;5035173;28;20521;-80
2022/06/22 10:19:27;;;;;;;3.40;3.10;;;26.90;82.70;;;;;;5030818;28;20433;-80
2022/06/22 10:22:37;;;;;;;3.20;2.50;;;27.40;83.50;;;;;;5051756;28;20433;-81
2022/06/22 10:26:00;;;;;;;8.23;3.03;;;27.70;82.90;;;;;;5041407;28;20437;-81
2022/06/22 10:29:08;;;;;;;3.40;3.10;;;27.80;76.40;;;;;;5054208;28;20454;-80
2022/06/22 10:32:04;;;;;;;3.23;2.93;;;27.60;81.60;;;;;;5035551;28;20468;-80
2022/06/22 10:35:16;;;;;;;5.53;3.43;;;27.30;79.30;;;;;;4997195;28;20457;-81
2022/06/22 10:38:27;;;;;;;3.03;2.80;;;27.20;81.20;;;;;;5045455;28;20433;-80
2022/06/22 10:48:23;;;;;;;3.83;2.93;;;28.60;72.90;;;;;;5052766;28;20445;-82
2022/06/22 10:51:41;;;;;;;3.43;3.23;;;28.60;80.00;;;;;;5039517;28;20488;-81
2022/06/22 10:54:55;;;;;;;3.70;3.40;;;28.80;81.20;;;;;;5033192;28;20485;-81
2022/06/22 10:58:20;;;;;;;5.47;3.60;;;29.10;76.20;;;;;;5027668;28;20500;-81
2022/06/22 11:01:26;;;;;;;3.73;3.40;;;29.00;75.90;;;;;;4987715;28;20928;-81
2022/06/22 11:04:45;;;;;;;3.10;2.87;;;27.60;74.80;;;;;;4995138;28;20440;-80
2022/06/22 11:08:08;;;;;;;2.97;2.77;;;28.00;75.70;;;;;;5002521;28;20578;-81
2022/06/22 11:11:08;;;;;;;3.03;2.83;;;28.30;81.90;;;;;;4972543;28;20538;-82
2022/06/22 11:14:30;;;;;;;3.17;2.97;;;29.10;80.90;;;;;;5000312;28;20471;-81
2022/06/22 11:17:40;;;;;;;3.33;2.43;;;29.50;74.50;;;;;;4995244;28;20546;-81
2022/06/22 11:20:49;;;;;;;4.20;3.37;;;29.60;74.50;;;;;;4978151;28;20726;-81
2022/06/22 11:24:09;;;;;;;4.03;3.33;;;28.40;74.20;;;;;;4988555;28;20472;-82
2022/06/22 11:30:53;;;;;;;2.80;2.60;;;29.10;74.90;;;;;;4990481;28;20475;-78
2022/06/22 11:33:58;;;;;;;8.80;3.60;;;29.20;75.70;;;;;;5016863;28;21359;-80
2022/06/22 11:37:09;;;;;;;3.00;2.80;;;29.00;73.40;;;;;;4994948;28;20938;-81
2022/06/22 11:40:14;;;;;;;5.67;2.73;;;29.00;73.80;;;;;;4936065;28;20524;-80
2022/06/22 11:43:20;;;;;;;2.77;2.57;;;28.90;70.50;;;;;;4942630;28;20465;-80
2022/06/22 11:46:17;;;;;;;4.80;3.47;;;29.20;75.60;;;;;;4957658;28;20450;-81
2022/06/22 11:49:20;;;;;;;2.90;2.70;;;29.20;77.90;;;;;;4933966;29;20474;-81
2022/06/22 11:52:28;;;;;;;3.10;2.87;;;29.30;74.40;;;;;;4929447;29;20571;-79
2022/06/22 11:55:29;;;;;;;3.10;2.90;;;29.50;69.90;;;;;;4945000;29;20515;-81
2022/06/22 11:58:31;;;;;;;3.23;2.93;;;29.70;68.10;;;;;;4912627;28;20789;-81
2022/06/22 12:01:41;;;;;;;3.43;3.00;;;29.90;68.70;;;;;;4928294;29;21014;-81
2022/06/22 12:04:57;;;;;;;3.00;2.80;;;29.90;68.30;;;;;;4954708;28;20584;-80
2022/06/22 12:07:59;;;;;;;3.03;2.83;;;29.90;66.30;;;;;;4910076;29;20462;-81
2022/06/22 12:11:12;;;;;;;5.97;2.77;;;30.20;67.40;;;;;;4946197;28;20449;-81
2022/06/22 12:17:36;;;;;;;11.73;3.23;;;30.30;65.00;;;;;;4939239;29;20454;-81
2022/06/22 12:21:02;;;;;;;8.23;3.20;;;30.60;64.10;;;;;;4916548;28;20265;-81
2022/06/22 12:24:26;;;;;;;3.47;2.93;;;31.00;66.60;;;;;;4939534;28;20472;-81
2022/06/22 12:27:30;;;;;;;3.25;2.90;;;31.10;63.60;;;;;;4954097;28;20201;-81
2022/06/22 12:30:28;;;;;;;3.72;2.95;;;31.10;64.50;;;;;;4946739;28;20189;-80
2022/06/22 12:33:31;;;;;;;4.25;2.72;;;31.20;61.60;;;;;;4938749;28;20206;-82
2022/06/22 12:36:26;;;;;;;2.88;2.58;;;31.30;60.70;;;;;;4953814;28;20193;-81
2022/06/22 12:39:22;;;;;;;2.88;2.67;;;31.70;61.70;;;;;;4938185;28;20223;-80
2022/06/22 12:42:29;;;;;;;5.60;2.70;;;32.00;61.10;;;;;;4936695;29;20226;-80
2022/06/22 12:45:31;;;;;;;3.10;2.90;;;31.80;58.70;;;;;;4977478;28;20408;-81
2022/06/22 12:48:47;;;;;;;3.10;2.90;;;31.30;58.50;;;;;;4997613;28;20271;-82
2022/06/22 12:51:42;;;;;;;3.33;3.13;;;31.90;60.00;;;;;;5020134;28;20192;-81
2022/06/22 12:54:34;;;;;;;5.75;2.80;;;32.00;58.60;;;;;;4997691;28;20256;-81
2022/06/22 12:57:27;;;;;;;5.00;2.67;;;31.80;58.30;;;;;;4983751;28;20263;-79
2022/06/22 13:00:15;;;;;;;5.13;3.17;;;31.60;61.90;;;;;;4975342;28;20255;-83
2022/06/22 13:03:00;;;;;;;2.88;2.67;;;31.70;60.80;;;;;;4979060;28;20288;-80
2022/06/22 13:05:46;;;;;;;3.13;2.83;;;32.00;59.60;;;;;;4962168;28;20237;-81
2022/06/22 13:08:31;;;;;;;2.67;2.50;;;32.10;59.40;;;;;;4996185;28;20294;-82
2022/06/22 13:11:21;;;;;;;5.30;2.88;;;32.00;56.70;;;;;;4971084;28;20244;-82
2022/06/22 13:14:24;;;;;;;4.38;3.42;;;32.00;59.50;;;;;;4965527;28;20189;-82
2022/06/22 13:17:23;;;;;;;6.00;2.78;;;31.90;57.40;;;;;;4981230;28;20204;-82
2022/06/22 13:20:26;;;;;;;2.97;2.78;;;31.60;56.30;;;;;;4974636;28;20227;-81
2022/06/22 13:23:29;;;;;;;3.13;2.85;;;31.40;59.40;;;;;;4958105;28;20274;-81
2022/06/22 13:26:23;;;;;;;4.13;3.33;;;31.10;58.70;;;;;;4949020;28;20202;-81
2022/06/22 13:29:35;;;;;;;5.53;2.92;;;30.70;59.30;;;;;;4977509;28;20317;-80
2022/06/22 13:32:24;;;;;;;3.67;2.60;;;30.50;59.10;;;;;;4978916;28;20200;-81
2022/06/22 13:35:19;;;;;;;3.30;3.00;;;30.70;60.00;;;;;;4978976;28;20219;-83
2022/06/22 13:38:25;;;;;;;2.90;2.70;;;30.60;60.00;;;;;;4983129;28;20488;-82
2022/06/22 13:41:46;;;;;;;4.50;3.07;;;30.50;63.00;;;;;;4983082;28;20535;-80
2022/06/22 13:45:08;;;;;;;3.47;3.17;;;30.60;61.40;;;;;;4984596;28;20978;-82
2022/06/22 13:48:11;;;;;;;3.70;3.40;;;30.60;58.40;;;;;;4981444;28;20595;-83
2022/06/22 13:51:40;;;;;;;3.17;2.87;;;30.60;61.10;;;;;;4980106;28;20486;-81
2022/06/22 13:54:58;;;;;;;2.93;2.73;;;30.50;63.40;;;;;;5017245;28;20744;-81
2022/06/22 13:57:52;;;;;;;7.47;4.07;;;30.50;58.60;;;;;;5032803;28;20270;-83
2022/06/22 14:00:57;;;;;;;3.00;2.80;;;30.60;62.40;;;;;;5026702;28;20558;-84
2022/06/22 14:04:00;;;;;;;3.20;2.90;;;30.70;63.20;;;;;;5039301;28;20449;-84
2022/06/22 14:06:51;;;;;;;3.60;3.30;;;31.20;60.50;;;;;;5019340;28;20433;-82
2022/06/22 14:09:42;;;;;;;3.20;3.00;;;31.50;57.50;;;;;;5043257;28;20221;-82
2022/06/22 14:12:38;;;;;;;3.72;3.42;;;31.40;58.60;;;;;;5026130;28;20190;-83
2022/06/22 14:15:33;;;;;;;4.70;2.65;;;31.80;57.70;;;;;;5024111;28;20191;-80
2022/06/22 14:18:36;;;;;;;2.78;2.58;;;32.00;56.60;;;;;;5014556;28;20175;-80
2022/06/22 14:21:43;;;;;;;9.52;3.30;;;32.20;57.30;;;;;;5031154;28;20195;-78
2022/06/22 14:24:36;;;;;;;4.30;3.38;;;32.30;59.70;;;;;;5026248;28;20257;-83
2022/06/22 14:27:46;;;;;;;3.13;2.92;;;32.20;57.40;;;;;;5009827;28;20190;-83
2022/06/22 14:31:13;;;;;;;5.47;4.30;;;32.50;55.90;;;;;;5032741;28;20201;-83
2022/06/22 14:34:22;;;;;;;3.28;3.08;;;32.10;58.10;;;;;;5023971;28;20274;-84
2022/06/22 14:37:17;;;;;;;3.35;2.80;;;32.40;61.20;;;;;;5010023;28;20330;-83
2022/06/22 14:40:18;;;;;;;7.18;3.38;;;32.20;56.00;;;;;;5023469;28;20203;-83
2022/06/22 14:43:26;;;;;;;4.35;3.38;;;31.80;56.00;;;;;;5035917;28;20540;-83
2022/06/22 14:46:21;;;;;;;6.72;3.58;;;31.80;59.00;;;;;;5030226;28;20186;-82
2022/06/22 14:49:19;;;;;;;6.68;3.75;;;32.20;59.80;;;;;;5001178;28;20200;-82
2022/06/22 14:52:17;;;;;;;3.45;2.95;;;32.00;59.20;;;;;;4974631;28;20224;-83
2022/06/22 14:55:24;;;;;;;4.43;3.20;;;31.80;56.80;;;;;;5021126;28;20208;-84
2022/06/22 14:58:31;;;;;;;3.20;2.90;;;31.50;57.90;;;;;;5030002;28;20235;-83
2022/06/22 15:01:32;;;;;;;3.20;2.88;;;31.20;61.80;;;;;;5018005;28;20199;-84
2022/06/22 15:04:38;;;;;;;10.68;5.97;;;30.90;58.00;;;;;;5015843;28;20187;-84
2022/06/22 15:07:34;;;;;;;5.17;3.50;;;30.90;60.50;;;;;;4997669;28;20223;-82
2022/06/22 15:10:33;;;;;;;6.77;4.20;;;30.90;62.40;;;;;;5016318;28;20199;-82
2022/06/22 15:13:45;;;;;;;3.30;3.10;;;31.00;60.10;;;;;;4999761;28;20364;-83
2022/06/22 15:16:36;;;;;;;4.10;3.27;;;30.90;63.10;;;;;;5014741;28;20260;-83
2022/06/22 15:19:42;;;;;;;3.40;2.97;;;30.90;64.40;;;;;;5014778;28;20219;-83
2022/06/22 15:22:49;;;;;;;5.67;4.37;;;31.10;61.50;;;;;;5003814;28;20192;-83
2022/06/22 15:25:55;;;;;;;3.47;3.27;;;31.00;61.20;;;;;;5019475;28;20533;-83
2022/06/22 15:28:54;;;;;;;7.13;3.27;;;30.60;61.70;;;;;;5054735;28;20167;-84
2022/06/22 15:31:52;;;;;;;6.20;3.43;;;30.70;64.20;;;;;;5055137;28;20178;-83
2022/06/22 15:34:48;;;;;;;4.33;3.90;;;30.50;62.50;;;;;;5049989;28;20417;-83
2022/06/22 15:37:59;;;;;;;4.23;3.73;;;30.50;60.70;;;;;;5044864;28;20449;-80
2022/06/22 15:41:02;;;;;;;4.13;3.73;;;30.30;63.00;;;;;;5057323;28;20521;-82
2022/06/22 15:43:56;;;;;;;4.67;3.30;;;30.20;63.30;;;;;;5054024;28;20417;-82
2022/06/22 15:46:52;;;;;;;3.67;3.47;;;30.20;62.00;;;;;;5053841;28;20471;-82
2022/06/22 15:49:45;;;;;;;4.43;4.03;;;30.40;60.00;;;;;;5068379;28;20421;-82
2022/06/22 15:52:41;;;;;;;4.27;3.40;;;30.50;58.70;;;;;;5056094;28;20413;-83
2022/06/22 15:55:39;;;;;;;6.67;3.23;;;30.70;58.30;;;;;;5045341;28;20507;-84